sensor_id;sensor_type;location;lat;lon;timestamp;P1;durP1;ratioP1;P2;durP2;ratioP2
12556;SDS011;6344;49.932;8.308;2024-03-17T00:01:00;13.40;;;12.20;;
12556;SDS011;6344;49.932;8.308;2024-03-17T00:03:26;14.90;;;13.33;;
12556;SDS011;6344;49.932;8.308;2024-03-17T00:05:58;16.67;;;13.27;;
12556;SDS011;6344;49.932;8.308;2024-03-17T00:08:24;13.53;;;12.27;;
12556;SDS011;6344;49.932;8.308;2024-03-17T00:10:51;15.37;;;13.50;;
12556;SDS011;6344;49.932;8.308;2024-03-17T00:13:18;12.90;;;11.80;;
12556;SDS011;6344;49.932;8.308;2024-03-17T00:15:45;13.73;;;12.10;;
12556;SDS011;6344;49.932;8.308;2024-03-17T00:18:11;13.80;;;12.50;;
12556;SDS011;6344;49.932;8.308;2024-03-17T00:20:39;13.53;;;12.03;;
12556;SDS011;6344;49.932;8.308;2024-03-17T00:23:07;12.90;;;11.60;;
12556;SDS011;6344;49.932;8.308;2024-03-17T00:25:34;12.00;;;10.80;;
12556;SDS011;6344;49.932;8.308;2024-03-17T00:28:00;11.13;;;10.10;;
12556;SDS011;6344;49.932;8.308;2024-03-17T00:30:28;11.73;;;10.53;;
12556;SDS011;6344;49.932;8.308;2024-03-17T00:32:54;11.63;;;10.60;;
12556;SDS011;6344;49.932;8.308;2024-03-17T00:35:23;12.90;;;11.20;;
12556;SDS011;6344;49.932;8.308;2024-03-17T00:37:50;12.40;;;11.20;;
12556;SDS011;6344;49.932;8.308;2024-03-17T00:40:19;12.60;;;11.30;;
12556;SDS011;6344;49.932;8.308;2024-03-17T00:42:46;11.97;;;10.90;;
12556;SDS011;6344;49.932;8.308;2024-03-17T00:45:13;12.47;;;11.27;;
12556;SDS011;6344;49.932;8.308;2024-03-17T00:47:39;11.97;;;10.87;;
12556;SDS011;6344;49.932;8.308;2024-03-17T00:50:06;11.90;;;10.70;;
12556;SDS011;6344;49.932;8.308;2024-03-17T00:52:33;12.57;;;11.37;;
12556;SDS011;6344;49.932;8.308;2024-03-17T00:55:00;12.20;;;10.90;;
12556;SDS011;6344;49.932;8.308;2024-03-17T00:57:28;11.60;;;10.53;;
12556;SDS011;6344;49.932;8.308;2024-03-17T00:59:55;15.03;;;12.23;;
12556;SDS011;6344;49.932;8.308;2024-03-17T01:02:21;12.77;;;11.50;;
12556;SDS011;6344;49.932;8.308;2024-03-17T01:04:48;15.90;;;12.57;;
12556;SDS011;6344;49.932;8.308;2024-03-17T01:07:14;11.90;;;10.80;;
12556;SDS011;6344;49.932;8.308;2024-03-17T01:09:41;12.10;;;10.90;;
12556;SDS011;6344;49.932;8.308;2024-03-17T01:12:08;11.80;;;10.40;;
12556;SDS011;6344;49.932;8.308;2024-03-17T01:14:36;14.63;;;11.23;;
12556;SDS011;6344;49.932;8.308;2024-03-17T01:17:02;11.43;;;10.30;;
12556;SDS011;6344;49.932;8.308;2024-03-17T01:19:30;11.70;;;10.50;;
12556;SDS011;6344;49.932;8.308;2024-03-17T01:21:57;12.97;;;11.57;;
12556;SDS011;6344;49.932;8.308;2024-03-17T01:24:24;12.13;;;10.93;;
12556;SDS011;6344;49.932;8.308;2024-03-17T01:26:50;12.27;;;10.97;;
12556;SDS011;6344;49.932;8.308;2024-03-17T01:29:18;12.97;;;11.67;;
12556;SDS011;6344;49.932;8.308;2024-03-17T01:31:45;15.63;;;12.40;;
12556;SDS011;6344;49.932;8.308;2024-03-17T01:34:12;16.00;;;12.33;;
12556;SDS011;6344;49.932;8.308;2024-03-17T01:36:38;14.03;;;12.07;;
12556;SDS011;6344;49.932;8.308;2024-03-17T01:39:05;13.63;;;10.83;;
12556;SDS011;6344;49.932;8.308;2024-03-17T01:41:32;11.53;;;10.43;;
12556;SDS011;6344;49.932;8.308;2024-03-17T01:43:59;11.70;;;10.60;;
12556;SDS011;6344;49.932;8.308;2024-03-17T01:46:25;11.57;;;10.37;;
12556;SDS011;6344;49.932;8.308;2024-03-17T01:48:54;16.57;;;10.77;;
12556;SDS011;6344;49.932;8.308;2024-03-17T01:51:20;10.90;;;9.80;;
12556;SDS011;6344;49.932;8.308;2024-03-17T01:53:48;11.57;;;10.47;;
12556;SDS011;6344;49.932;8.308;2024-03-17T01:56:15;11.30;;;10.00;;
12556;SDS011;6344;49.932;8.308;2024-03-17T01:58:43;12.27;;;10.97;;
12556;SDS011;6344;49.932;8.308;2024-03-17T02:01:10;11.17;;;9.30;;
12556;SDS011;6344;49.932;8.308;2024-03-17T02:03:39;12.30;;;11.00;;
12556;SDS011;6344;49.932;8.308;2024-03-17T02:06:06;11.83;;;10.63;;
12556;SDS011;6344;49.932;8.308;2024-03-17T02:08:46;11.87;;;9.80;;
12556;SDS011;6344;49.932;8.308;2024-03-17T02:11:14;12.37;;;9.43;;
12556;SDS011;6344;49.932;8.308;2024-03-17T02:13:50;11.30;;;10.10;;
12556;SDS011;6344;49.932;8.308;2024-03-17T02:16:17;12.90;;;9.63;;
12556;SDS011;6344;49.932;8.308;2024-03-17T02:18:44;13.30;;;11.00;;
12556;SDS011;6344;49.932;8.308;2024-03-17T02:21:12;9.97;;;8.97;;
12556;SDS011;6344;49.932;8.308;2024-03-17T02:23:41;10.27;;;9.27;;
12556;SDS011;6344;49.932;8.308;2024-03-17T02:26:08;14.00;;;10.27;;
12556;SDS011;6344;49.932;8.308;2024-03-17T02:28:43;11.00;;;9.77;;
12556;SDS011;6344;49.932;8.308;2024-03-17T02:31:10;11.53;;;10.43;;
12556;SDS011;6344;49.932;8.308;2024-03-17T02:33:37;11.47;;;10.10;;
12556;SDS011;6344;49.932;8.308;2024-03-17T02:36:04;12.57;;;11.37;;
12556;SDS011;6344;49.932;8.308;2024-03-17T02:38:32;13.27;;;10.87;;
12556;SDS011;6344;49.932;8.308;2024-03-17T02:41:18;11.53;;;10.37;;
12556;SDS011;6344;49.932;8.308;2024-03-17T02:43:46;11.87;;;10.07;;
12556;SDS011;6344;49.932;8.308;2024-03-17T02:46:13;12.37;;;10.77;;
12556;SDS011;6344;49.932;8.308;2024-03-17T02:48:41;11.70;;;9.70;;
12556;SDS011;6344;49.932;8.308;2024-03-17T02:51:10;15.40;;;11.57;;
12556;SDS011;6344;49.932;8.308;2024-03-17T02:53:38;12.20;;;10.10;;
12556;SDS011;6344;49.932;8.308;2024-03-17T02:56:05;12.93;;;10.60;;
12556;SDS011;6344;49.932;8.308;2024-03-17T02:58:34;14.27;;;12.77;;
12556;SDS011;6344;49.932;8.308;2024-03-17T03:01:01;14.37;;;12.50;;
12556;SDS011;6344;49.932;8.308;2024-03-17T03:03:29;17.73;;;12.87;;
12556;SDS011;6344;49.932;8.308;2024-03-17T03:05:56;14.53;;;10.90;;
12556;SDS011;6344;49.932;8.308;2024-03-17T03:08:25;14.97;;;12.87;;
12556;SDS011;6344;49.932;8.308;2024-03-17T03:10:53;14.93;;;13.17;;
12556;SDS011;6344;49.932;8.308;2024-03-17T03:13:20;16.83;;;13.77;;
12556;SDS011;6344;49.932;8.308;2024-03-17T03:15:48;16.40;;;13.57;;
12556;SDS011;6344;49.932;8.308;2024-03-17T03:18:15;17.20;;;12.67;;
12556;SDS011;6344;49.932;8.308;2024-03-17T03:20:43;16.53;;;14.83;;
12556;SDS011;6344;49.932;8.308;2024-03-17T03:23:16;17.77;;;14.03;;
12556;SDS011;6344;49.932;8.308;2024-03-17T03:25:43;19.03;;;14.57;;
12556;SDS011;6344;49.932;8.308;2024-03-17T03:28:11;14.33;;;12.07;;
12556;SDS011;6344;49.932;8.308;2024-03-17T03:30:38;15.87;;;14.03;;
12556;SDS011;6344;49.932;8.308;2024-03-17T03:33:07;15.63;;;13.90;;
12556;SDS011;6344;49.932;8.308;2024-03-17T03:35:34;14.87;;;12.80;;
12556;SDS011;6344;49.932;8.308;2024-03-17T03:38:01;17.93;;;13.53;;
12556;SDS011;6344;49.932;8.308;2024-03-17T03:40:28;15.53;;;13.90;;
12556;SDS011;6344;49.932;8.308;2024-03-17T03:42:56;15.97;;;14.17;;
12556;SDS011;6344;49.932;8.308;2024-03-17T03:45:23;13.60;;;12.20;;
12556;SDS011;6344;49.932;8.308;2024-03-17T03:47:50;16.83;;;13.13;;
12556;SDS011;6344;49.932;8.308;2024-03-17T03:50:20;15.53;;;13.93;;
12556;SDS011;6344;49.932;8.308;2024-03-17T03:52:48;16.80;;;13.90;;
12556;SDS011;6344;49.932;8.308;2024-03-17T03:55:16;17.57;;;13.57;;
12556;SDS011;6344;49.932;8.308;2024-03-17T03:57:44;18.00;;;13.93;;
12556;SDS011;6344;49.932;8.308;2024-03-17T04:00:13;14.30;;;12.50;;
12556;SDS011;6344;49.932;8.308;2024-03-17T04:02:40;16.63;;;13.80;;
12556;SDS011;6344;49.932;8.308;2024-03-17T04:05:08;17.83;;;14.10;;
12556;SDS011;6344;49.932;8.308;2024-03-17T04:07:36;15.83;;;12.30;;
12556;SDS011;6344;49.932;8.308;2024-03-17T04:10:05;16.37;;;12.53;;
12556;SDS011;6344;49.932;8.308;2024-03-17T04:12:32;16.90;;;13.87;;
12556;SDS011;6344;49.932;8.308;2024-03-17T04:14:59;20.33;;;14.77;;
12556;SDS011;6344;49.932;8.308;2024-03-17T04:17:27;17.37;;;13.70;;
12556;SDS011;6344;49.932;8.308;2024-03-17T04:19:54;19.30;;;15.30;;
12556;SDS011;6344;49.932;8.308;2024-03-17T04:22:21;17.30;;;14.80;;
12556;SDS011;6344;49.932;8.308;2024-03-17T04:24:50;20.23;;;15.47;;
12556;SDS011;6344;49.932;8.308;2024-03-17T04:27:19;21.60;;;15.63;;
12556;SDS011;6344;49.932;8.308;2024-03-17T04:29:46;15.43;;;13.70;;
12556;SDS011;6344;49.932;8.308;2024-03-17T04:32:13;15.20;;;13.67;;
12556;SDS011;6344;49.932;8.308;2024-03-17T04:34:41;21.07;;;15.83;;
12556;SDS011;6344;49.932;8.308;2024-03-17T04:37:09;18.20;;;14.83;;
12556;SDS011;6344;49.932;8.308;2024-03-17T04:39:37;36.90;;;15.90;;
12556;SDS011;6344;49.932;8.308;2024-03-17T04:42:05;19.60;;;14.27;;
12556;SDS011;6344;49.932;8.308;2024-03-17T04:44:32;19.00;;;16.60;;
12556;SDS011;6344;49.932;8.308;2024-03-17T04:46:59;17.50;;;14.83;;
12556;SDS011;6344;49.932;8.308;2024-03-17T04:49:27;17.80;;;14.57;;
12556;SDS011;6344;49.932;8.308;2024-03-17T04:51:54;18.80;;;14.60;;
12556;SDS011;6344;49.932;8.308;2024-03-17T04:54:21;18.70;;;15.70;;
12556;SDS011;6344;49.932;8.308;2024-03-17T04:56:48;22.70;;;16.77;;
12556;SDS011;6344;49.932;8.308;2024-03-17T04:59:17;22.87;;;16.97;;
12556;SDS011;6344;49.932;8.308;2024-03-17T05:01:44;18.73;;;16.73;;
12556;SDS011;6344;49.932;8.308;2024-03-17T05:04:11;18.60;;;15.67;;
12556;SDS011;6344;49.932;8.308;2024-03-17T05:06:38;17.90;;;15.37;;
12556;SDS011;6344;49.932;8.308;2024-03-17T05:09:06;21.87;;;14.70;;
12556;SDS011;6344;49.932;8.308;2024-03-17T05:11:33;18.60;;;15.03;;
12556;SDS011;6344;49.932;8.308;2024-03-17T05:14:02;21.77;;;15.00;;
12556;SDS011;6344;49.932;8.308;2024-03-17T05:16:31;18.97;;;15.37;;
12556;SDS011;6344;49.932;8.308;2024-03-17T05:18:58;16.73;;;14.23;;
12556;SDS011;6344;49.932;8.308;2024-03-17T05:21:25;17.37;;;15.57;;
12556;SDS011;6344;49.932;8.308;2024-03-17T05:23:55;16.83;;;15.20;;
12556;SDS011;6344;49.932;8.308;2024-03-17T05:26:22;20.63;;;16.53;;
12556;SDS011;6344;49.932;8.308;2024-03-17T05:28:50;16.20;;;14.50;;
12556;SDS011;6344;49.932;8.308;2024-03-17T05:31:17;16.30;;;14.20;;
12556;SDS011;6344;49.932;8.308;2024-03-17T05:33:47;20.10;;;17.07;;
12556;SDS011;6344;49.932;8.308;2024-03-17T05:36:14;17.27;;;15.47;;
12556;SDS011;6344;49.932;8.308;2024-03-17T05:38:45;27.50;;;16.00;;
12556;SDS011;6344;49.932;8.308;2024-03-17T05:41:12;21.80;;;16.23;;
12556;SDS011;6344;49.932;8.308;2024-03-17T05:43:40;18.23;;;14.07;;
12556;SDS011;6344;49.932;8.308;2024-03-17T05:46:08;23.30;;;16.73;;
12556;SDS011;6344;49.932;8.308;2024-03-17T05:48:35;18.67;;;15.50;;
12556;SDS011;6344;49.932;8.308;2024-03-17T05:51:05;18.53;;;15.50;;
12556;SDS011;6344;49.932;8.308;2024-03-17T05:53:32;17.13;;;15.17;;
12556;SDS011;6344;49.932;8.308;2024-03-17T05:55:59;18.93;;;15.20;;
12556;SDS011;6344;49.932;8.308;2024-03-17T05:58:26;17.63;;;14.03;;
12556;SDS011;6344;49.932;8.308;2024-03-17T06:00:53;19.20;;;14.83;;
12556;SDS011;6344;49.932;8.308;2024-03-17T06:03:20;17.30;;;14.90;;
12556;SDS011;6344;49.932;8.308;2024-03-17T06:05:48;16.33;;;14.63;;
12556;SDS011;6344;49.932;8.308;2024-03-17T06:08:16;19.83;;;14.90;;
12556;SDS011;6344;49.932;8.308;2024-03-17T06:10:44;19.83;;;15.73;;
12556;SDS011;6344;49.932;8.308;2024-03-17T06:13:11;17.00;;;15.20;;
12556;SDS011;6344;49.932;8.308;2024-03-17T06:15:40;16.50;;;13.80;;
12556;SDS011;6344;49.932;8.308;2024-03-17T06:18:07;16.47;;;13.53;;
12556;SDS011;6344;49.932;8.308;2024-03-17T06:20:39;16.47;;;14.60;;
12556;SDS011;6344;49.932;8.308;2024-03-17T06:23:07;18.03;;;15.20;;
12556;SDS011;6344;49.932;8.308;2024-03-17T06:25:38;16.93;;;15.00;;
12556;SDS011;6344;49.932;8.308;2024-03-17T06:28:05;16.20;;;14.60;;
12556;SDS011;6344;49.932;8.308;2024-03-17T06:30:32;16.43;;;14.70;;
12556;SDS011;6344;49.932;8.308;2024-03-17T06:33:01;18.90;;;15.90;;
12556;SDS011;6344;49.932;8.308;2024-03-17T06:35:28;20.50;;;14.10;;
12556;SDS011;6344;49.932;8.308;2024-03-17T06:37:58;16.27;;;13.37;;
12556;SDS011;6344;49.932;8.308;2024-03-17T06:40:25;16.03;;;13.60;;
12556;SDS011;6344;49.932;8.308;2024-03-17T06:42:54;15.00;;;13.37;;
12556;SDS011;6344;49.932;8.308;2024-03-17T06:45:21;16.30;;;13.50;;
12556;SDS011;6344;49.932;8.308;2024-03-17T06:47:49;16.43;;;14.40;;
12556;SDS011;6344;49.932;8.308;2024-03-17T06:50:16;22.27;;;13.57;;
12556;SDS011;6344;49.932;8.308;2024-03-17T06:52:43;16.00;;;13.70;;
12556;SDS011;6344;49.932;8.308;2024-03-17T06:55:10;16.73;;;13.10;;
12556;SDS011;6344;49.932;8.308;2024-03-17T06:57:40;15.37;;;13.77;;
12556;SDS011;6344;49.932;8.308;2024-03-17T07:00:11;15.13;;;13.60;;
12556;SDS011;6344;49.932;8.308;2024-03-17T07:02:39;20.47;;;13.53;;
12556;SDS011;6344;49.932;8.308;2024-03-17T07:05:10;15.83;;;13.90;;
12556;SDS011;6344;49.932;8.308;2024-03-17T07:07:39;15.90;;;13.07;;
12556;SDS011;6344;49.932;8.308;2024-03-17T07:10:06;13.90;;;12.57;;
12556;SDS011;6344;49.932;8.308;2024-03-17T07:12:33;13.20;;;11.93;;
12556;SDS011;6344;49.932;8.308;2024-03-17T07:15:01;13.57;;;12.20;;
12556;SDS011;6344;49.932;8.308;2024-03-17T07:17:29;12.97;;;11.67;;
12556;SDS011;6344;49.932;8.308;2024-03-17T07:19:56;11.93;;;10.77;;
12556;SDS011;6344;49.932;8.308;2024-03-17T07:22:23;10.80;;;9.80;;
12556;SDS011;6344;49.932;8.308;2024-03-17T07:24:51;11.23;;;10.30;;
12556;SDS011;6344;49.932;8.308;2024-03-17T07:27:20;12.73;;;9.97;;
12556;SDS011;6344;49.932;8.308;2024-03-17T07:29:48;11.73;;;10.53;;
12556;SDS011;6344;49.932;8.308;2024-03-17T07:32:15;10.97;;;10.07;;
12556;SDS011;6344;49.932;8.308;2024-03-17T07:34:43;11.23;;;10.13;;
12556;SDS011;6344;49.932;8.308;2024-03-17T07:37:10;10.50;;;9.43;;
12556;SDS011;6344;49.932;8.308;2024-03-17T07:39:37;11.40;;;10.40;;
12556;SDS011;6344;49.932;8.308;2024-03-17T07:42:04;11.40;;;10.27;;
12556;SDS011;6344;49.932;8.308;2024-03-17T07:44:32;11.30;;;10.37;;
12556;SDS011;6344;49.932;8.308;2024-03-17T07:46:59;10.77;;;9.77;;
12556;SDS011;6344;49.932;8.308;2024-03-17T07:49:26;10.00;;;9.10;;
12556;SDS011;6344;49.932;8.308;2024-03-17T07:51:55;10.53;;;9.60;;
12556;SDS011;6344;49.932;8.308;2024-03-17T07:54:22;11.10;;;9.83;;
12556;SDS011;6344;49.932;8.308;2024-03-17T07:56:49;9.30;;;8.60;;
12556;SDS011;6344;49.932;8.308;2024-03-17T07:59:16;10.33;;;9.50;;
12556;SDS011;6344;49.932;8.308;2024-03-17T08:01:43;11.37;;;10.17;;
12556;SDS011;6344;49.932;8.308;2024-03-17T08:04:11;10.73;;;9.83;;
12556;SDS011;6344;49.932;8.308;2024-03-17T08:06:38;11.00;;;10.00;;
12556;SDS011;6344;49.932;8.308;2024-03-17T08:09:06;8.70;;;8.00;;
12556;SDS011;6344;49.932;8.308;2024-03-17T08:11:34;8.90;;;8.10;;
12556;SDS011;6344;49.932;8.308;2024-03-17T08:14:01;8.80;;;8.10;;
12556;SDS011;6344;49.932;8.308;2024-03-17T08:16:28;10.17;;;9.37;;
12556;SDS011;6344;49.932;8.308;2024-03-17T08:18:55;11.37;;;10.37;;
12556;SDS011;6344;49.932;8.308;2024-03-17T08:21:23;8.77;;;8.10;;
12556;SDS011;6344;49.932;8.308;2024-03-17T08:23:52;10.10;;;9.10;;
12556;SDS011;6344;49.932;8.308;2024-03-17T08:26:20;8.10;;;7.50;;
12556;SDS011;6344;49.932;8.308;2024-03-17T08:28:47;8.60;;;7.80;;
12556;SDS011;6344;49.932;8.308;2024-03-17T08:31:14;7.57;;;7.07;;
12556;SDS011;6344;49.932;8.308;2024-03-17T08:33:41;8.20;;;7.50;;
12556;SDS011;6344;49.932;8.308;2024-03-17T08:36:08;8.17;;;7.57;;
12556;SDS011;6344;49.932;8.308;2024-03-17T08:38:36;8.27;;;7.60;;
12556;SDS011;6344;49.932;8.308;2024-03-17T08:41:04;9.30;;;8.50;;
12556;SDS011;6344;49.932;8.308;2024-03-17T08:43:33;8.20;;;7.40;;
12556;SDS011;6344;49.932;8.308;2024-03-17T08:46:01;7.17;;;6.63;;
12556;SDS011;6344;49.932;8.308;2024-03-17T08:48:28;8.23;;;7.73;;
12556;SDS011;6344;49.932;8.308;2024-03-17T08:50:56;15.60;;;14.10;;
12556;SDS011;6344;49.932;8.308;2024-03-17T08:53:25;8.13;;;7.50;;
12556;SDS011;6344;49.932;8.308;2024-03-17T08:55:52;7.20;;;6.70;;
12556;SDS011;6344;49.932;8.308;2024-03-17T08:58:19;8.37;;;7.77;;
12556;SDS011;6344;49.932;8.308;2024-03-17T09:00:48;7.87;;;7.27;;
12556;SDS011;6344;49.932;8.308;2024-03-17T09:03:16;8.57;;;7.87;;
12556;SDS011;6344;49.932;8.308;2024-03-17T09:05:43;8.30;;;7.70;;
12556;SDS011;6344;49.932;8.308;2024-03-17T09:08:14;8.90;;;8.30;;
12556;SDS011;6344;49.932;8.308;2024-03-17T09:10:42;7.77;;;7.17;;
12556;SDS011;6344;49.932;8.308;2024-03-17T09:13:10;8.67;;;8.00;;
12556;SDS011;6344;49.932;8.308;2024-03-17T09:15:40;7.77;;;7.20;;
12556;SDS011;6344;49.932;8.308;2024-03-17T09:18:08;8.40;;;7.70;;
12556;SDS011;6344;49.932;8.308;2024-03-17T09:20:35;8.53;;;7.93;;
12556;SDS011;6344;49.932;8.308;2024-03-17T09:23:02;8.73;;;7.97;;
12556;SDS011;6344;49.932;8.308;2024-03-17T09:25:29;7.50;;;6.60;;
12556;SDS011;6344;49.932;8.308;2024-03-17T09:27:56;7.97;;;7.37;;
12556;SDS011;6344;49.932;8.308;2024-03-17T09:30:23;9.37;;;8.67;;
12556;SDS011;6344;49.932;8.308;2024-03-17T09:32:50;7.53;;;7.03;;
12556;SDS011;6344;49.932;8.308;2024-03-17T09:35:19;9.63;;;7.30;;
12556;SDS011;6344;49.932;8.308;2024-03-17T09:37:46;7.57;;;6.80;;
12556;SDS011;6344;49.932;8.308;2024-03-17T09:40:13;7.10;;;6.60;;
12556;SDS011;6344;49.932;8.308;2024-03-17T09:42:41;6.80;;;6.37;;
12556;SDS011;6344;49.932;8.308;2024-03-17T09:45:08;8.43;;;7.83;;
12556;SDS011;6344;49.932;8.308;2024-03-17T09:47:36;7.40;;;6.70;;
12556;SDS011;6344;49.932;8.308;2024-03-17T09:50:06;8.53;;;7.40;;
12556;SDS011;6344;49.932;8.308;2024-03-17T09:52:40;7.90;;;7.10;;
12556;SDS011;6344;49.932;8.308;2024-03-17T09:55:09;8.10;;;7.30;;
12556;SDS011;6344;49.932;8.308;2024-03-17T09:57:40;8.60;;;6.87;;
12556;SDS011;6344;49.932;8.308;2024-03-17T10:00:09;7.33;;;6.80;;
12556;SDS011;6344;49.932;8.308;2024-03-17T10:02:41;6.40;;;6.00;;
12556;SDS011;6344;49.932;8.308;2024-03-17T10:05:17;7.13;;;6.43;;
12556;SDS011;6344;49.932;8.308;2024-03-17T10:07:46;7.10;;;6.50;;
12556;SDS011;6344;49.932;8.308;2024-03-17T10:10:14;6.40;;;5.90;;
12556;SDS011;6344;49.932;8.308;2024-03-17T10:12:43;5.87;;;5.40;;
12556;SDS011;6344;49.932;8.308;2024-03-17T10:15:10;6.53;;;6.10;;
12556;SDS011;6344;49.932;8.308;2024-03-17T10:17:38;6.47;;;5.97;;
12556;SDS011;6344;49.932;8.308;2024-03-17T10:20:15;5.90;;;5.40;;
12556;SDS011;6344;49.932;8.308;2024-03-17T10:23:02;6.87;;;6.37;;
12556;SDS011;6344;49.932;8.308;2024-03-17T10:25:30;6.93;;;6.43;;
12556;SDS011;6344;49.932;8.308;2024-03-17T10:27:56;5.90;;;5.47;;
12556;SDS011;6344;49.932;8.308;2024-03-17T10:30:24;7.00;;;6.30;;
12556;SDS011;6344;49.932;8.308;2024-03-17T10:32:53;6.27;;;5.77;;
12556;SDS011;6344;49.932;8.308;2024-03-17T10:35:29;6.43;;;6.03;;
12556;SDS011;6344;49.932;8.308;2024-03-17T10:37:57;6.03;;;5.63;;
12556;SDS011;6344;49.932;8.308;2024-03-17T10:40:26;6.33;;;5.73;;
12556;SDS011;6344;49.932;8.308;2024-03-17T10:42:54;6.93;;;6.33;;
12556;SDS011;6344;49.932;8.308;2024-03-17T10:45:22;6.90;;;6.40;;
12556;SDS011;6344;49.932;8.308;2024-03-17T10:47:50;5.80;;;5.30;;
12556;SDS011;6344;49.932;8.308;2024-03-17T10:50:18;7.23;;;6.70;;
12556;SDS011;6344;49.932;8.308;2024-03-17T10:52:44;7.70;;;7.00;;
12556;SDS011;6344;49.932;8.308;2024-03-17T10:55:19;7.70;;;7.00;;
12556;SDS011;6344;49.932;8.308;2024-03-17T10:57:49;6.70;;;6.10;;
12556;SDS011;6344;49.932;8.308;2024-03-17T11:00:16;7.33;;;6.73;;
12556;SDS011;6344;49.932;8.308;2024-03-17T11:02:44;7.07;;;6.57;;
12556;SDS011;6344;49.932;8.308;2024-03-17T11:05:14;6.97;;;6.47;;
12556;SDS011;6344;49.932;8.308;2024-03-17T11:07:42;7.50;;;6.90;;
12556;SDS011;6344;49.932;8.308;2024-03-17T11:10:11;7.20;;;6.70;;
12556;SDS011;6344;49.932;8.308;2024-03-17T11:12:42;7.43;;;6.87;;
12556;SDS011;6344;49.932;8.308;2024-03-17T11:20:42;9.60;;;8.90;;
12556;SDS011;6344;49.932;8.308;2024-03-17T11:23:10;7.57;;;6.93;;
12556;SDS011;6344;49.932;8.308;2024-03-17T11:25:52;6.90;;;6.40;;
12556;SDS011;6344;49.932;8.308;2024-03-17T11:31:01;6.50;;;6.00;;
12556;SDS011;6344;49.932;8.308;2024-03-17T11:33:46;7.30;;;6.80;;
12556;SDS011;6344;49.932;8.308;2024-03-17T11:36:36;6.87;;;6.33;;
12556;SDS011;6344;49.932;8.308;2024-03-17T11:39:04;9.33;;;8.67;;
12556;SDS011;6344;49.932;8.308;2024-03-17T11:41:35;7.30;;;6.70;;
12556;SDS011;6344;49.932;8.308;2024-03-17T11:44:12;7.83;;;7.13;;
12556;SDS011;6344;49.932;8.308;2024-03-17T11:46:39;10.23;;;9.40;;
12556;SDS011;6344;49.932;8.308;2024-03-17T11:49:06;7.73;;;7.03;;
12556;SDS011;6344;49.932;8.308;2024-03-17T11:51:34;6.90;;;6.40;;
12556;SDS011;6344;49.932;8.308;2024-03-17T11:54:01;7.73;;;7.13;;
12556;SDS011;6344;49.932;8.308;2024-03-17T11:56:28;7.57;;;6.97;;
12556;SDS011;6344;49.932;8.308;2024-03-17T11:59:03;6.60;;;6.10;;
12556;SDS011;6344;49.932;8.308;2024-03-17T12:01:29;8.27;;;7.67;;
12556;SDS011;6344;49.932;8.308;2024-03-17T12:03:57;9.23;;;8.53;;
12556;SDS011;6344;49.932;8.308;2024-03-17T12:06:28;7.87;;;7.07;;
12556;SDS011;6344;49.932;8.308;2024-03-17T12:09:08;7.97;;;7.37;;
12556;SDS011;6344;49.932;8.308;2024-03-17T12:11:35;8.57;;;7.97;;
12556;SDS011;6344;49.932;8.308;2024-03-17T12:14:15;8.37;;;7.87;;
12556;SDS011;6344;49.932;8.308;2024-03-17T12:16:47;9.57;;;8.77;;
12556;SDS011;6344;49.932;8.308;2024-03-17T12:19:14;10.40;;;9.50;;
12556;SDS011;6344;49.932;8.308;2024-03-17T12:21:43;8.60;;;8.00;;
12556;SDS011;6344;49.932;8.308;2024-03-17T12:24:12;8.50;;;8.00;;
12556;SDS011;6344;49.932;8.308;2024-03-17T12:26:40;8.43;;;7.83;;
12556;SDS011;6344;49.932;8.308;2024-03-17T12:29:19;12.43;;;10.37;;
12556;SDS011;6344;49.932;8.308;2024-03-17T12:31:47;10.00;;;9.20;;
12556;SDS011;6344;49.932;8.308;2024-03-17T12:34:13;11.37;;;10.27;;
12556;SDS011;6344;49.932;8.308;2024-03-17T12:36:40;11.77;;;10.87;;
12556;SDS011;6344;49.932;8.308;2024-03-17T12:39:12;11.50;;;10.60;;
12556;SDS011;6344;49.932;8.308;2024-03-17T12:41:43;11.80;;;10.90;;
12556;SDS011;6344;49.932;8.308;2024-03-17T12:44:19;16.10;;;14.60;;
12556;SDS011;6344;49.932;8.308;2024-03-17T12:46:46;11.17;;;10.17;;
12556;SDS011;6344;49.932;8.308;2024-03-17T12:49:13;11.73;;;10.73;;
12556;SDS011;6344;49.932;8.308;2024-03-17T12:51:40;12.10;;;11.10;;
12556;SDS011;6344;49.932;8.308;2024-03-17T12:54:14;11.13;;;10.13;;
12556;SDS011;6344;49.932;8.308;2024-03-17T12:56:42;12.70;;;11.37;;
12556;SDS011;6344;49.932;8.308;2024-03-17T12:59:36;10.13;;;9.33;;
12556;SDS011;6344;49.932;8.308;2024-03-17T13:02:20;9.97;;;9.17;;
12556;SDS011;6344;49.932;8.308;2024-03-17T13:04:48;9.97;;;9.03;;
12556;SDS011;6344;49.932;8.308;2024-03-17T13:07:31;11.40;;;10.40;;
12556;SDS011;6344;49.932;8.308;2024-03-17T13:10:00;10.00;;;9.10;;
12556;SDS011;6344;49.932;8.308;2024-03-17T13:12:29;11.03;;;10.13;;
12556;SDS011;6344;49.932;8.308;2024-03-17T13:14:56;11.63;;;10.63;;
12556;SDS011;6344;49.932;8.308;2024-03-17T13:17:23;12.17;;;11.07;;
12556;SDS011;6344;49.932;8.308;2024-03-17T13:19:50;11.90;;;10.90;;
12556;SDS011;6344;49.932;8.308;2024-03-17T13:22:17;11.13;;;10.23;;
12556;SDS011;6344;49.932;8.308;2024-03-17T13:24:44;11.50;;;10.60;;
12556;SDS011;6344;49.932;8.308;2024-03-17T13:27:13;11.73;;;10.70;;
12556;SDS011;6344;49.932;8.308;2024-03-17T13:29:40;12.77;;;11.57;;
12556;SDS011;6344;49.932;8.308;2024-03-17T13:32:09;11.30;;;10.33;;
12556;SDS011;6344;49.932;8.308;2024-03-17T13:34:36;11.37;;;10.37;;
12556;SDS011;6344;49.932;8.308;2024-03-17T13:37:03;12.40;;;11.30;;
12556;SDS011;6344;49.932;8.308;2024-03-17T13:39:30;13.60;;;9.40;;
12556;SDS011;6344;49.932;8.308;2024-03-17T13:41:58;11.63;;;10.63;;
12556;SDS011;6344;49.932;8.308;2024-03-17T13:44:29;11.77;;;10.67;;
12556;SDS011;6344;49.932;8.308;2024-03-17T13:46:57;11.00;;;10.00;;
12556;SDS011;6344;49.932;8.308;2024-03-17T13:49:24;15.03;;;13.73;;
12556;SDS011;6344;49.932;8.308;2024-03-17T13:51:52;9.43;;;8.67;;
12556;SDS011;6344;49.932;8.308;2024-03-17T13:54:19;12.23;;;10.93;;
12556;SDS011;6344;49.932;8.308;2024-03-17T13:56:46;12.40;;;10.00;;
12556;SDS011;6344;49.932;8.308;2024-03-17T13:59:13;9.47;;;8.73;;
12556;SDS011;6344;49.932;8.308;2024-03-17T14:01:42;10.57;;;9.57;;
12556;SDS011;6344;49.932;8.308;2024-03-17T14:04:12;10.03;;;9.17;;
12556;SDS011;6344;49.932;8.308;2024-03-17T14:06:40;9.70;;;8.70;;
12556;SDS011;6344;49.932;8.308;2024-03-17T14:09:07;11.00;;;9.90;;
12556;SDS011;6344;49.932;8.308;2024-03-17T14:11:35;9.97;;;9.00;;
12556;SDS011;6344;49.932;8.308;2024-03-17T14:14:03;10.00;;;8.13;;
12556;SDS011;6344;49.932;8.308;2024-03-17T14:16:30;9.97;;;9.10;;
12556;SDS011;6344;49.932;8.308;2024-03-17T14:18:59;10.57;;;9.27;;
12556;SDS011;6344;49.932;8.308;2024-03-17T14:21:26;10.50;;;9.50;;
12556;SDS011;6344;49.932;8.308;2024-03-17T14:23:53;9.07;;;8.17;;
12556;SDS011;6344;49.932;8.308;2024-03-17T14:26:20;10.80;;;9.47;;
12556;SDS011;6344;49.932;8.308;2024-03-17T14:28:47;10.97;;;9.97;;
12556;SDS011;6344;49.932;8.308;2024-03-17T14:31:15;11.50;;;10.50;;
12556;SDS011;6344;49.932;8.308;2024-03-17T14:33:42;11.07;;;9.93;;
12556;SDS011;6344;49.932;8.308;2024-03-17T14:36:11;17.93;;;16.33;;
12556;SDS011;6344;49.932;8.308;2024-03-17T14:38:38;13.10;;;11.93;;
12556;SDS011;6344;49.932;8.308;2024-03-17T14:41:05;14.23;;;12.93;;
12556;SDS011;6344;49.932;8.308;2024-03-17T14:43:33;37.27;;;33.23;;
12556;SDS011;6344;49.932;8.308;2024-03-17T14:46:03;12.20;;;10.77;;
12556;SDS011;6344;49.932;8.308;2024-03-17T14:48:32;12.47;;;11.40;;
12556;SDS011;6344;49.932;8.308;2024-03-17T14:51:00;12.50;;;11.40;;
12556;SDS011;6344;49.932;8.308;2024-03-17T14:53:28;11.07;;;10.07;;
12556;SDS011;6344;49.932;8.308;2024-03-17T14:55:55;10.50;;;8.93;;
12556;SDS011;6344;49.932;8.308;2024-03-17T14:58:24;9.90;;;9.00;;